sensor_id;sensor_type;location;lat;lon;timestamp;temperature;humidity
67192;HTU21D;54120;53.504;49.426;2022-12-18T00:01:47;-1.28;94.09
67192;HTU21D;54120;53.504;49.426;2022-12-18T00:04:22;-1.33;95.04
67192;HTU21D;54120;53.504;49.426;2022-12-18T00:06:48;-1.33;95.46
67192;HTU21D;54120;53.504;49.426;2022-12-18T00:09:14;-1.31;96.10
67192;HTU21D;54120;53.504;49.426;2022-12-18T00:11:41;-1.29;96.49
67192;HTU21D;54120;53.504;49.426;2022-12-18T00:14:08;-1.39;96.41
67192;HTU21D;54120;53.504;49.426;2022-12-18T00:16:34;-1.48;95.23
67192;HTU21D;54120;53.504;49.426;2022-12-18T00:19:01;-1.56;97.00
67192;HTU21D;54120;53.504;49.426;2022-12-18T00:21:28;-1.60;97.07
67192;HTU21D;54120;53.504;49.426;2022-12-18T00:23:54;-1.62;97.18
67192;HTU21D;54120;53.504;49.426;2022-12-18T00:26:26;-1.61;97.79
67192;HTU21D;54120;53.504;49.426;2022-12-18T00:28:53;-1.61;97.94
67192;HTU21D;54120;53.504;49.426;2022-12-18T00:31:22;-1.59;98.03
67192;HTU21D;54120;53.504;49.426;2022-12-18T00:33:48;-1.58;97.75
67192;HTU21D;54120;53.504;49.426;2022-12-18T00:36:26;-1.57;97.61
67192;HTU21D;54120;53.504;49.426;2022-12-18T00:38:54;-1.55;97.72
67192;HTU21D;54120;53.504;49.426;2022-12-18T00:41:21;-1.52;97.58
67192;HTU21D;54120;53.504;49.426;2022-12-18T00:44:07;-1.55;96.91
67192;HTU21D;54120;53.504;49.426;2022-12-18T00:46:33;-1.57;96.97
67192;HTU21D;54120;53.504;49.426;2022-12-18T00:48:59;-1.57;96.49
67192;HTU21D;54120;53.504;49.426;2022-12-18T00:51:26;-1.55;96.23
67192;HTU21D;54120;53.504;49.426;2022-12-18T00:53:52;-1.57;96.36
67192;HTU21D;54120;53.504;49.426;2022-12-18T00:56:21;-1.52;96.80
67192;HTU21D;54120;53.504;49.426;2022-12-18T00:58:47;-1.48;96.88
67192;HTU21D;54120;53.504;49.426;2022-12-18T01:01:13;-1.47;97.13
67192;HTU21D;54120;53.504;49.426;2022-12-18T01:03:39;-1.43;97.13
67192;HTU21D;54120;53.504;49.426;2022-12-18T01:06:11;-1.46;97.15
67192;HTU21D;54120;53.504;49.426;2022-12-18T01:08:37;-1.46;97.74
67192;HTU21D;54120;53.504;49.426;2022-12-18T01:11:11;-1.43;98.25
67192;HTU21D;54120;53.504;49.426;2022-12-18T01:13:38;-1.33;99.09
67192;HTU21D;54120;53.504;49.426;2022-12-18T01:16:05;-1.33;99.09
67192;HTU21D;54120;53.504;49.426;2022-12-18T01:18:31;-1.35;99.60
67192;HTU21D;54120;53.504;49.426;2022-12-18T01:20:58;-1.36;100.02
67192;HTU21D;54120;53.504;49.426;2022-12-18T01:23:24;-1.39;100.41
67192;HTU21D;54120;53.504;49.426;2022-12-18T01:25:50;-1.41;100.75
67192;HTU21D;54120;53.504;49.426;2022-12-18T01:28:16;-1.34;101.23
67192;HTU21D;54120;53.504;49.426;2022-12-18T01:30:42;-1.39;101.35
67192;HTU21D;54120;53.504;49.426;2022-12-18T01:33:07;-1.39;101.53
67192;HTU21D;54120;53.504;49.426;2022-12-18T01:35:41;-1.40;101.75
67192;HTU21D;54120;53.504;49.426;2022-12-18T01:38:07;-1.45;101.86
67192;HTU21D;54120;53.504;49.426;2022-12-18T01:40:34;-1.45;102.28
67192;HTU21D;54120;53.504;49.426;2022-12-18T01:43:00;-1.48;102.15
67192;HTU21D;54120;53.504;49.426;2022-12-18T01:45:31;-1.50;102.28
67192;HTU21D;54120;53.504;49.426;2022-12-18T01:48:06;-1.52;102.23
67192;HTU21D;54120;53.504;49.426;2022-12-18T01:50:34;-1.50;102.09
67192;HTU21D;54120;53.504;49.426;2022-12-18T01:53:11;-1.53;102.47
67192;HTU21D;54120;53.504;49.426;2022-12-18T01:55:45;-1.57;102.92
67192;HTU21D;54120;53.504;49.426;2022-12-18T01:58:12;-1.59;103.14
67192;HTU21D;54120;53.504;49.426;2022-12-18T02:00:38;-1.61;103.36
67192;HTU21D;54120;53.504;49.426;2022-12-18T02:03:04;-1.60;103.68
67192;HTU21D;54120;53.504;49.426;2022-12-18T02:19:13;-1.71;103.17
67192;HTU21D;54120;53.504;49.426;2022-12-18T02:24:31;-1.75;102.89
67192;HTU21D;54120;53.504;49.426;2022-12-18T02:27:03;-1.80;102.22
67192;HTU21D;54120;53.504;49.426;2022-12-18T02:29:35;-1.83;102.61
67192;HTU21D;54120;53.504;49.426;2022-12-18T02:32:06;-1.85;102.82
67192;HTU21D;54120;53.504;49.426;2022-12-18T02:34:37;-1.89;102.69
67192;HTU21D;54120;53.504;49.426;2022-12-18T02:37:06;-1.90;102.73
67192;HTU21D;54120;53.504;49.426;2022-12-18T02:39:36;-1.87;102.81
67192;HTU21D;54120;53.504;49.426;2022-12-18T02:42:03;-1.89;102.67
67192;HTU21D;54120;53.504;49.426;2022-12-18T02:44:44;-1.89;102.70
67192;HTU21D;54120;53.504;49.426;2022-12-18T02:47:12;-1.83;102.72
67192;HTU21D;54120;53.504;49.426;2022-12-18T02:52:39;-1.73;102.53
67192;HTU21D;54120;53.504;49.426;2022-12-18T02:58:05;-1.62;102.12
67192;HTU21D;54120;53.504;49.426;2022-12-18T03:01:00;-1.60;102.08
67192;HTU21D;54120;53.504;49.426;2022-12-18T03:03:33;-1.56;102.21
67192;HTU21D;54120;53.504;49.426;2022-12-18T03:06:06;-1.52;102.37
67192;HTU21D;54120;53.504;49.426;2022-12-18T03:08:37;-1.47;102.42
67192;HTU21D;54120;53.504;49.426;2022-12-18T03:11:09;-1.35;102.57
67192;HTU21D;54120;53.504;49.426;2022-12-18T03:13:54;-1.31;102.33
67192;HTU21D;54120;53.504;49.426;2022-12-18T03:16:28;-1.28;102.47
67192;HTU21D;54120;53.504;49.426;2022-12-18T03:19:10;-1.27;102.51
67192;HTU21D;54120;53.504;49.426;2022-12-18T03:21:42;-1.24;102.55
67192;HTU21D;54120;53.504;49.426;2022-12-18T03:24:09;-1.19;102.55
67192;HTU21D;54120;53.504;49.426;2022-12-18T03:26:40;-1.13;103.99
67192;HTU21D;54120;53.504;49.426;2022-12-18T03:29:13;-1.01;104.58
67192;HTU21D;54120;53.504;49.426;2022-12-18T03:31:41;-1.04;104.68
67192;HTU21D;54120;53.504;49.426;2022-12-18T03:34:13;-0.98;104.96
67192;HTU21D;54120;53.504;49.426;2022-12-18T03:36:41;-0.93;105.10
67192;HTU21D;54120;53.504;49.426;2022-12-18T03:39:07;-0.86;105.24
67192;HTU21D;54120;53.504;49.426;2022-12-18T03:41:50;-0.81;105.29
67192;HTU21D;54120;53.504;49.426;2022-12-18T03:49:37;-0.74;105.51
67192;HTU21D;54120;53.504;49.426;2022-12-18T03:52:10;-0.73;105.60
67192;HTU21D;54120;53.504;49.426;2022-12-18T03:54:38;-0.62;105.72
67192;HTU21D;54120;53.504;49.426;2022-12-18T03:57:16;-0.64;105.79
67192;HTU21D;54120;53.504;49.426;2022-12-18T03:59:45;-0.58;105.85
67192;HTU21D;54120;53.504;49.426;2022-12-18T04:02:15;-0.67;105.82
67192;HTU21D;54120;53.504;49.426;2022-12-18T04:04:42;-0.57;105.89
67192;HTU21D;54120;53.504;49.426;2022-12-18T04:07:10;-0.61;105.89
67192;HTU21D;54120;53.504;49.426;2022-12-18T04:09:38;-0.55;105.98
67192;HTU21D;54120;53.504;49.426;2022-12-18T04:12:05;-0.44;106.09
67192;HTU21D;54120;53.504;49.426;2022-12-18T04:14:31;-0.43;106.09
67192;HTU21D;54120;53.504;49.426;2022-12-18T04:17:01;-0.41;106.05
67192;HTU21D;54120;53.504;49.426;2022-12-18T04:19:28;-0.41;106.01
67192;HTU21D;54120;53.504;49.426;2022-12-18T04:21:54;-0.31;106.05
67192;HTU21D;54120;53.504;49.426;2022-12-18T04:24:20;-0.31;106.01
67192;HTU21D;54120;53.504;49.426;2022-12-18T04:26:46;-0.30;106.07
67192;HTU21D;54120;53.504;49.426;2022-12-18T04:29:12;-0.24;106.08
67192;HTU21D;54120;53.504;49.426;2022-12-18T04:31:39;-0.21;106.12
67192;HTU21D;54120;53.504;49.426;2022-12-18T04:34:04;-0.21;106.12
67192;HTU21D;54120;53.504;49.426;2022-12-18T04:36:31;-0.26;106.11
67192;HTU21D;54120;53.504;49.426;2022-12-18T04:38:57;-0.21;106.20
67192;HTU21D;54120;53.504;49.426;2022-12-18T04:41:23;-0.26;106.13
67192;HTU21D;54120;53.504;49.426;2022-12-18T04:43:49;-0.26;106.15
67192;HTU21D;54120;53.504;49.426;2022-12-18T04:46:15;-0.23;106.17
67192;HTU21D;54120;53.504;49.426;2022-12-18T04:48:41;-0.14;106.24
67192;HTU21D;54120;53.504;49.426;2022-12-18T04:51:07;-0.15;106.21
67192;HTU21D;54120;53.504;49.426;2022-12-18T04:53:33;-0.14;106.24
67192;HTU21D;54120;53.504;49.426;2022-12-18T04:56:07;-0.08;106.23
67192;HTU21D;54120;53.504;49.426;2022-12-18T04:58:35;0.02;106.27
67192;HTU21D;54120;53.504;49.426;2022-12-18T05:01:01;0.12;106.31
67192;HTU21D;54120;53.504;49.426;2022-12-18T05:03:27;0.18;106.32
67192;HTU21D;54120;53.504;49.426;2022-12-18T05:05:53;0.22;106.34
67192;HTU21D;54120;53.504;49.426;2022-12-18T05:08:19;0.25;106.34
67192;HTU21D;54120;53.504;49.426;2022-12-18T05:10:45;0.27;106.37
67192;HTU21D;54120;53.504;49.426;2022-12-18T05:13:11;0.28;106.46
67192;HTU21D;54120;53.504;49.426;2022-12-18T05:15:37;0.27;106.45
67192;HTU21D;54120;53.504;49.426;2022-12-18T05:18:04;0.31;106.52
67192;HTU21D;54120;53.504;49.426;2022-12-18T05:20:30;0.31;106.47
67192;HTU21D;54120;53.504;49.426;2022-12-18T05:22:56;0.34;106.55
67192;HTU21D;54120;53.504;49.426;2022-12-18T05:25:23;0.36;106.60
67192;HTU21D;54120;53.504;49.426;2022-12-18T05:27:49;0.30;106.59
67192;HTU21D;54120;53.504;49.426;2022-12-18T05:30:16;0.27;106.62
67192;HTU21D;54120;53.504;49.426;2022-12-18T05:32:42;0.28;106.66
67192;HTU21D;54120;53.504;49.426;2022-12-18T05:35:10;0.29;106.72
67192;HTU21D;54120;53.504;49.426;2022-12-18T05:37:36;0.29;106.75
67192;HTU21D;54120;53.504;49.426;2022-12-18T05:40:03;0.28;106.80
67192;HTU21D;54120;53.504;49.426;2022-12-18T05:42:30;0.38;106.88
67192;HTU21D;54120;53.504;49.426;2022-12-18T05:44:57;0.37;106.93
67192;HTU21D;54120;53.504;49.426;2022-12-18T05:47:23;0.39;106.92
67192;HTU21D;54120;53.504;49.426;2022-12-18T05:49:49;0.32;106.92
67192;HTU21D;54120;53.504;49.426;2022-12-18T05:52:15;0.31;106.95
67192;HTU21D;54120;53.504;49.426;2022-12-18T05:54:41;0.44;107.04
67192;HTU21D;54120;53.504;49.426;2022-12-18T05:57:07;0.40;107.04
67192;HTU21D;54120;53.504;49.426;2022-12-18T05:59:33;0.33;107.01
67192;HTU21D;54120;53.504;49.426;2022-12-18T06:01:59;0.34;107.05
67192;HTU21D;54120;53.504;49.426;2022-12-18T06:04:27;0.37;107.10
67192;HTU21D;54120;53.504;49.426;2022-12-18T06:06:54;0.32;107.08
67192;HTU21D;54120;53.504;49.426;2022-12-18T06:09:20;0.32;107.11
67192;HTU21D;54120;53.504;49.426;2022-12-18T06:11:46;0.35;107.20
67192;HTU21D;54120;53.504;49.426;2022-12-18T06:14:12;0.36;107.20
67192;HTU21D;54120;53.504;49.426;2022-12-18T06:16:38;0.31;107.20
67192;HTU21D;54120;53.504;49.426;2022-12-18T06:19:05;0.28;107.19
67192;HTU21D;54120;53.504;49.426;2022-12-18T06:21:31;0.27;107.21
67192;HTU21D;54120;53.504;49.426;2022-12-18T06:23:59;0.27;107.22
67192;HTU21D;54120;53.504;49.426;2022-12-18T06:26:25;0.30;107.27
67192;HTU21D;54120;53.504;49.426;2022-12-18T06:28:51;0.27;107.25
67192;HTU21D;54120;53.504;49.426;2022-12-18T06:31:17;0.30;107.29
67192;HTU21D;54120;53.504;49.426;2022-12-18T06:33:43;0.30;107.30
67192;HTU21D;54120;53.504;49.426;2022-12-18T06:36:11;0.38;107.37
67192;HTU21D;54120;53.504;49.426;2022-12-18T06:38:40;0.35;107.31
67192;HTU21D;54120;53.504;49.426;2022-12-18T06:41:18;0.23;107.30
67192;HTU21D;54120;53.504;49.426;2022-12-18T06:43:45;0.28;107.33
67192;HTU21D;54120;53.504;49.426;2022-12-18T06:46:11;0.28;107.32
67192;HTU21D;54120;53.504;49.426;2022-12-18T06:48:38;0.28;107.33
67192;HTU21D;54120;53.504;49.426;2022-12-18T06:51:04;0.31;107.33
67192;HTU21D;54120;53.504;49.426;2022-12-18T06:53:31;0.34;107.33
67192;HTU21D;54120;53.504;49.426;2022-12-18T06:56:06;0.35;107.33
67192;HTU21D;54120;53.504;49.426;2022-12-18T06:58:32;0.35;107.30
67192;HTU21D;54120;53.504;49.426;2022-12-18T07:01:03;0.30;107.30
67192;HTU21D;54120;53.504;49.426;2022-12-18T07:03:32;0.24;107.27
67192;HTU21D;54120;53.504;49.426;2022-12-18T07:05:58;0.18;107.25
67192;HTU21D;54120;53.504;49.426;2022-12-18T07:08:24;0.17;107.26
67192;HTU21D;54120;53.504;49.426;2022-12-18T07:10:50;0.14;107.28
67192;HTU21D;54120;53.504;49.426;2022-12-18T07:13:17;0.17;107.31
67192;HTU21D;54120;53.504;49.426;2022-12-18T07:15:43;0.24;107.34
67192;HTU21D;54120;53.504;49.426;2022-12-18T07:18:10;0.31;107.33
67192;HTU21D;54120;53.504;49.426;2022-12-18T07:20:36;0.30;107.30
67192;HTU21D;54120;53.504;49.426;2022-12-18T07:23:03;0.33;107.06
67192;HTU21D;54120;53.504;49.426;2022-12-18T07:25:35;0.29;106.55
67192;HTU21D;54120;53.504;49.426;2022-12-18T07:28:01;0.32;105.72
67192;HTU21D;54120;53.504;49.426;2022-12-18T07:30:27;0.34;103.99
67192;HTU21D;54120;53.504;49.426;2022-12-18T07:32:53;0.33;103.30
67192;HTU21D;54120;53.504;49.426;2022-12-18T07:35:19;0.42;102.63
67192;HTU21D;54120;53.504;49.426;2022-12-18T07:37:45;0.42;102.65
67192;HTU21D;54120;53.504;49.426;2022-12-18T07:40:12;0.39;102.37
67192;HTU21D;54120;53.504;49.426;2022-12-18T07:42:38;0.40;100.82
67192;HTU21D;54120;53.504;49.426;2022-12-18T07:45:04;0.42;101.88
67192;HTU21D;54120;53.504;49.426;2022-12-18T07:47:30;0.42;100.92
67192;HTU21D;54120;53.504;49.426;2022-12-18T07:49:56;0.48;100.10
67192;HTU21D;54120;53.504;49.426;2022-12-18T07:52:22;0.54;100.72
67192;HTU21D;54120;53.504;49.426;2022-12-18T07:54:48;0.55;100.56
67192;HTU21D;54120;53.504;49.426;2022-12-18T07:57:17;0.50;100.34
67192;HTU21D;54120;53.504;49.426;2022-12-18T07:59:43;0.48;100.53
67192;HTU21D;54120;53.504;49.426;2022-12-18T08:02:09;0.46;99.82
67192;HTU21D;54120;53.504;49.426;2022-12-18T08:04:35;0.42;100.22
67192;HTU21D;54120;53.504;49.426;2022-12-18T08:07:01;0.40;99.86
67192;HTU21D;54120;53.504;49.426;2022-12-18T08:09:27;0.43;100.16
67192;HTU21D;54120;53.504;49.426;2022-12-18T08:11:53;0.47;99.90
67192;HTU21D;54120;53.504;49.426;2022-12-18T08:14:19;0.52;100.24
67192;HTU21D;54120;53.504;49.426;2022-12-18T08:16:45;0.58;100.64
67192;HTU21D;54120;53.504;49.426;2022-12-18T08:19:11;0.55;101.49
67192;HTU21D;54120;53.504;49.426;2022-12-18T08:21:40;0.59;101.99
67192;HTU21D;54120;53.504;49.426;2022-12-18T08:24:06;0.59;102.54
67192;HTU21D;54120;53.504;49.426;2022-12-18T08:26:34;0.58;102.51
67192;HTU21D;54120;53.504;49.426;2022-12-18T08:29:00;0.60;103.14
67192;HTU21D;54120;53.504;49.426;2022-12-18T08:31:28;0.59;103.43
67192;HTU21D;54120;53.504;49.426;2022-12-18T08:33:55;0.59;103.66
67192;HTU21D;54120;53.504;49.426;2022-12-18T08:36:22;0.60;103.99
67192;HTU21D;54120;53.504;49.426;2022-12-18T08:38:49;0.52;104.27
67192;HTU21D;54120;53.504;49.426;2022-12-18T08:41:16;0.57;104.35
67192;HTU21D;54120;53.504;49.426;2022-12-18T08:43:43;0.54;104.50
67192;HTU21D;54120;53.504;49.426;2022-12-18T08:46:32;0.53;104.60
67192;HTU21D;54120;53.504;49.426;2022-12-18T08:48:59;0.53;104.84
67192;HTU21D;54120;53.504;49.426;2022-12-18T08:51:25;0.55;105.01
67192;HTU21D;54120;53.504;49.426;2022-12-18T08:53:51;0.54;105.08
67192;HTU21D;54120;53.504;49.426;2022-12-18T08:56:17;0.54;105.16
67192;HTU21D;54120;53.504;49.426;2022-12-18T08:58:43;0.57;105.27
67192;HTU21D;54120;53.504;49.426;2022-12-18T09:01:11;0.59;105.47
67192;HTU21D;54120;53.504;49.426;2022-12-18T09:03:39;0.61;105.54
67192;HTU21D;54120;53.504;49.426;2022-12-18T09:06:06;0.64;105.56
67192;HTU21D;54120;53.504;49.426;2022-12-18T09:08:32;0.62;105.59
67192;HTU21D;54120;53.504;49.426;2022-12-18T09:10:59;0.63;105.66
67192;HTU21D;54120;53.504;49.426;2022-12-18T09:13:25;0.60;105.70
67192;HTU21D;54120;53.504;49.426;2022-12-18T09:15:52;0.54;105.80
67192;HTU21D;54120;53.504;49.426;2022-12-18T09:18:20;0.55;105.90
67192;HTU21D;54120;53.504;49.426;2022-12-18T09:20:46;0.58;105.94
67192;HTU21D;54120;53.504;49.426;2022-12-18T09:23:13;0.59;105.92
67192;HTU21D;54120;53.504;49.426;2022-12-18T09:25:40;0.60;105.94
67192;HTU21D;54120;53.504;49.426;2022-12-18T09:28:13;0.61;105.95
67192;HTU21D;54120;53.504;49.426;2022-12-18T09:30:47;0.63;105.92
67192;HTU21D;54120;53.504;49.426;2022-12-18T09:33:15;0.67;105.93
67192;HTU21D;54120;53.504;49.426;2022-12-18T09:35:42;0.71;105.91
67192;HTU21D;54120;53.504;49.426;2022-12-18T09:38:15;0.71;105.89
67192;HTU21D;54120;53.504;49.426;2022-12-18T09:40:50;0.73;105.85
67192;HTU21D;54120;53.504;49.426;2022-12-18T09:43:20;0.71;105.86
67192;HTU21D;54120;53.504;49.426;2022-12-18T09:45:51;0.71;105.82
67192;HTU21D;54120;53.504;49.426;2022-12-18T09:48:25;0.72;105.81
67192;HTU21D;54120;53.504;49.426;2022-12-18T09:50:57;0.71;105.78
67192;HTU21D;54120;53.504;49.426;2022-12-18T09:53:26;0.71;105.81
67192;HTU21D;54120;53.504;49.426;2022-12-18T09:55:54;0.71;105.85
67192;HTU21D;54120;53.504;49.426;2022-12-18T09:58:36;0.68;105.89
67192;HTU21D;54120;53.504;49.426;2022-12-18T10:01:15;0.71;105.95
67192;HTU21D;54120;53.504;49.426;2022-12-18T10:03:43;0.72;105.98
67192;HTU21D;54120;53.504;49.426;2022-12-18T10:06:18;0.73;106.00
67192;HTU21D;54120;53.504;49.426;2022-12-18T10:09:00;0.72;106.03
67192;HTU21D;54120;53.504;49.426;2022-12-18T10:16:56;0.75;106.17
67192;HTU21D;54120;53.504;49.426;2022-12-18T10:22:07;0.84;106.38
67192;HTU21D;54120;53.504;49.426;2022-12-18T10:25:01;0.84;106.40
67192;HTU21D;54120;53.504;49.426;2022-12-18T10:27:28;0.83;106.40
67192;HTU21D;54120;53.504;49.426;2022-12-18T10:29:55;0.81;106.42
67192;HTU21D;54120;53.504;49.426;2022-12-18T10:32:28;0.81;106.44
67192;HTU21D;54120;53.504;49.426;2022-12-18T10:34:56;0.82;106.47
67192;HTU21D;54120;53.504;49.426;2022-12-18T10:37:25;0.87;106.49
67192;HTU21D;54120;53.504;49.426;2022-12-18T10:40:13;0.86;106.50
67192;HTU21D;54120;53.504;49.426;2022-12-18T10:42:40;0.87;106.52
67192;HTU21D;54120;53.504;49.426;2022-12-18T10:45:15;0.87;106.53
67192;HTU21D;54120;53.504;49.426;2022-12-18T10:47:43;0.88;106.51
67192;HTU21D;54120;53.504;49.426;2022-12-18T10:50:30;0.89;106.53
67192;HTU21D;54120;53.504;49.426;2022-12-18T10:52:59;0.88;106.53
67192;HTU21D;54120;53.504;49.426;2022-12-18T10:55:37;0.87;106.56
67192;HTU21D;54120;53.504;49.426;2022-12-18T10:58:34;0.92;106.56
67192;HTU21D;54120;53.504;49.426;2022-12-18T11:01:15;0.93;106.63
67192;HTU21D;54120;53.504;49.426;2022-12-18T11:03:45;0.95;106.68
67192;HTU21D;54120;53.504;49.426;2022-12-18T11:06:14;0.96;106.71
67192;HTU21D;54120;53.504;49.426;2022-12-18T11:08:42;0.97;106.71
67192;HTU21D;54120;53.504;49.426;2022-12-18T11:11:22;1.04;106.74
67192;HTU21D;54120;53.504;49.426;2022-12-18T11:14:15;1.01;106.74
67192;HTU21D;54120;53.504;49.426;2022-12-18T11:16:46;1.02;106.77
67192;HTU21D;54120;53.504;49.426;2022-12-18T11:19:37;1.01;106.79
67192;HTU21D;54120;53.504;49.426;2022-12-18T11:22:25;0.97;106.80
67192;HTU21D;54120;53.504;49.426;2022-12-18T11:25:18;0.97;106.82
67192;HTU21D;54120;53.504;49.426;2022-12-18T11:27:56;1.02;106.88
67192;HTU21D;54120;53.504;49.426;2022-12-18T11:30:27;1.03;106.84
67192;HTU21D;54120;53.504;49.426;2022-12-18T11:35:51;0.99;106.84
67192;HTU21D;54120;53.504;49.426;2022-12-18T11:38:22;1.05;106.87
67192;HTU21D;54120;53.504;49.426;2022-12-18T11:41:15;1.04;106.85
67192;HTU21D;54120;53.504;49.426;2022-12-18T11:44:02;1.05;106.85
67192;HTU21D;54120;53.504;49.426;2022-12-18T11:46:39;1.05;106.84
67192;HTU21D;54120;53.504;49.426;2022-12-18T11:49:18;1.05;106.85
67192;HTU21D;54120;53.504;49.426;2022-12-18T11:51:53;1.08;106.85
67192;HTU21D;54120;53.504;49.426;2022-12-18T11:54:21;1.10;106.85
67192;HTU21D;54120;53.504;49.426;2022-12-18T11:56:58;1.11;106.88
67192;HTU21D;54120;53.504;49.426;2022-12-18T12:08:21;1.18;106.87
67192;HTU21D;54120;53.504;49.426;2022-12-18T12:10:42;1.20;106.82
67192;HTU21D;54120;53.504;49.426;2022-12-18T12:13:34;1.23;106.84
67192;HTU21D;54120;53.504;49.426;2022-12-18T12:21:57;1.31;106.84
67192;HTU21D;54120;53.504;49.426;2022-12-18T12:24:49;1.36;106.85
67192;HTU21D;54120;53.504;49.426;2022-12-18T12:27:40;1.42;106.79
67192;HTU21D;54120;53.504;49.426;2022-12-18T12:30:22;1.43;106.75
67192;HTU21D;54120;53.504;49.426;2022-12-18T12:35:46;1.42;106.69
67192;HTU21D;54120;53.504;49.426;2022-12-18T12:38:57;1.47;106.64
67192;HTU21D;54120;53.504;49.426;2022-12-18T12:41:26;1.45;106.56
67192;HTU21D;54120;53.504;49.426;2022-12-18T12:44:38;1.43;106.43
67192;HTU21D;54120;53.504;49.426;2022-12-18T12:47:26;1.42;106.38
67192;HTU21D;54120;53.504;49.426;2022-12-18T12:49:54;1.41;106.37
67192;HTU21D;54120;53.504;49.426;2022-12-18T12:52:35;1.47;106.37
67192;HTU21D;54120;53.504;49.426;2022-12-18T12:55:05;1.47;106.27
67192;HTU21D;54120;53.504;49.426;2022-12-18T12:58:02;1.50;106.10
67192;HTU21D;54120;53.504;49.426;2022-12-18T13:00:44;1.51;105.93
67192;HTU21D;54120;53.504;49.426;2022-12-18T13:03:33;1.53;105.87
67192;HTU21D;54120;53.504;49.426;2022-12-18T13:06:08;1.57;105.72
67192;HTU21D;54120;53.504;49.426;2022-12-18T13:08:58;1.54;105.57
67192;HTU21D;54120;53.504;49.426;2022-12-18T13:11:43;1.53;105.61
67192;HTU21D;54120;53.504;49.426;2022-12-18T13:14:34;1.52;105.61
67192;HTU21D;54120;53.504;49.426;2022-12-18T13:17:27;1.52;105.56
67192;HTU21D;54120;53.504;49.426;2022-12-18T13:20:06;1.50;105.57
67192;HTU21D;54120;53.504;49.426;2022-12-18T13:25:01;1.52;105.60
67192;HTU21D;54120;53.504;49.426;2022-12-18T13:40:59;1.56;104.99
67192;HTU21D;54120;53.504;49.426;2022-12-18T13:43:43;1.56;104.95
67192;HTU21D;54120;53.504;49.426;2022-12-18T13:46:29;1.56;104.79
67192;HTU21D;54120;53.504;49.426;2022-12-18T13:49:03;1.56;104.79
67192;HTU21D;54120;53.504;49.426;2022-12-18T13:51:32;1.60;104.88
67192;HTU21D;54120;53.504;49.426;2022-12-18T13:56:56;1.67;104.83
67192;HTU21D;54120;53.504;49.426;2022-12-18T13:59:25;1.66;104.95
67192;HTU21D;54120;53.504;49.426;2022-12-18T14:01:57;1.66;104.95
67192;HTU21D;54120;53.504;49.426;2022-12-18T14:04:25;1.68;104.95
67192;HTU21D;54120;53.504;49.426;2022-12-18T14:06:55;1.70;104.95
67192;HTU21D;54120;53.504;49.426;2022-12-18T14:09:26;1.70;104.86
67192;HTU21D;54120;53.504;49.426;2022-12-18T14:11:53;1.69;104.78
67192;HTU21D;54120;53.504;49.426;2022-12-18T14:14:48;1.70;104.73
67192;HTU21D;54120;53.504;49.426;2022-12-18T14:17:15;1.70;104.59
67192;HTU21D;54120;53.504;49.426;2022-12-18T14:19:43;1.72;104.40
67192;HTU21D;54120;53.504;49.426;2022-12-18T14:22:24;1.75;104.41
67192;HTU21D;54120;53.504;49.426;2022-12-18T14:25:27;1.77;104.37
67192;HTU21D;54120;53.504;49.426;2022-12-18T14:30:37;1.78;104.39
67192;HTU21D;54120;53.504;49.426;2022-12-18T14:33:18;1.77;104.32
67192;HTU21D;54120;53.504;49.426;2022-12-18T14:36:13;1.79;104.37
67192;HTU21D;54120;53.504;49.426;2022-12-18T14:38:47;1.78;104.30
67192;HTU21D;54120;53.504;49.426;2022-12-18T14:41:15;1.75;104.31
67192;HTU21D;54120;53.504;49.426;2022-12-18T14:43:44;1.75;104.30
67192;HTU21D;54120;53.504;49.426;2022-12-18T14:49:03;1.76;104.44
67192;HTU21D;54120;53.504;49.426;2022-12-18T14:51:31;1.77;104.57
67192;HTU21D;54120;53.504;49.426;2022-12-18T14:54:03;1.78;104.65
67192;HTU21D;54120;53.504;49.426;2022-12-18T14:56:42;1.73;104.71
67192;HTU21D;54120;53.504;49.426;2022-12-18T14:59:15;1.72;104.74
67192;HTU21D;54120;53.504;49.426;2022-12-18T15:04:26;1.75;104.82
67192;HTU21D;54120;53.504;49.426;2022-12-18T15:09:37;1.73;104.63
67192;HTU21D;54120;53.504;49.426;2022-12-18T15:12:26;1.75;104.57
67192;HTU21D;54120;53.504;49.426;2022-12-18T15:14:53;1.81;104.50
67192;HTU21D;54120;53.504;49.426;2022-12-18T15:17:21;1.88;104.38
67192;HTU21D;54120;53.504;49.426;2022-12-18T15:19:51;1.84;104.31
67192;HTU21D;54120;53.504;49.426;2022-12-18T15:22:20;1.82;104.34
67192;HTU21D;54120;53.504;49.426;2022-12-18T15:24:47;1.81;104.50
67192;HTU21D;54120;53.504;49.426;2022-12-18T15:27:36;1.80;104.59
67192;HTU21D;54120;53.504;49.426;2022-12-18T15:30:24;1.78;104.67
67192;HTU21D;54120;53.504;49.426;2022-12-18T15:32:52;1.80;104.80
67192;HTU21D;54120;53.504;49.426;2022-12-18T15:35:38;1.75;104.83
67192;HTU21D;54120;53.504;49.426;2022-12-18T15:38:04;1.80;104.85
67192;HTU21D;54120;53.504;49.426;2022-12-18T15:40:30;1.81;104.76
67192;HTU21D;54120;53.504;49.426;2022-12-18T15:42:56;1.79;104.64
67192;HTU21D;54120;53.504;49.426;2022-12-18T15:45:41;1.78;104.50
67192;HTU21D;54120;53.504;49.426;2022-12-18T15:48:26;1.79;104.37
67192;HTU21D;54120;53.504;49.426;2022-12-18T15:50:54;1.83;104.21
67192;HTU21D;54120;53.504;49.426;2022-12-18T15:53:24;1.87;103.95
67192;HTU21D;54120;53.504;49.426;2022-12-18T15:55:51;1.88;103.73
67192;HTU21D;54120;53.504;49.426;2022-12-18T15:58:36;1.92;103.61
67192;HTU21D;54120;53.504;49.426;2022-12-18T16:01:02;1.90;103.50
67192;HTU21D;54120;53.504;49.426;2022-12-18T16:03:29;1.90;103.48
67192;HTU21D;54120;53.504;49.426;2022-12-18T16:05:55;1.91;103.44
67192;HTU21D;54120;53.504;49.426;2022-12-18T16:08:24;1.92;103.63
67192;HTU21D;54120;53.504;49.426;2022-12-18T16:10:50;1.93;103.66
67192;HTU21D;54120;53.504;49.426;2022-12-18T16:13:19;1.93;103.68
67192;HTU21D;54120;53.504;49.426;2022-12-18T16:15:46;1.94;103.76
67192;HTU21D;54120;53.504;49.426;2022-12-18T16:18:12;1.94;103.73
67192;HTU21D;54120;53.504;49.426;2022-12-18T16:20:39;1.92;103.72
67192;HTU21D;54120;53.504;49.426;2022-12-18T16:23:05;1.91;103.76
67192;HTU21D;54120;53.504;49.426;2022-12-18T16:25:31;1.86;103.85
67192;HTU21D;54120;53.504;49.426;2022-12-18T16:27:58;1.86;103.97
67192;HTU21D;54120;53.504;49.426;2022-12-18T16:30:27;1.84;104.11
67192;HTU21D;54120;53.504;49.426;2022-12-18T16:32:54;1.83;104.28
67192;HTU21D;54120;53.504;49.426;2022-12-18T16:35:23;1.82;104.43
67192;HTU21D;54120;53.504;49.426;2022-12-18T16:37:49;1.83;104.52
67192;HTU21D;54120;53.504;49.426;2022-12-18T16:40:17;1.82;104.58
67192;HTU21D;54120;53.504;49.426;2022-12-18T16:42:45;1.79;104.65
67192;HTU21D;54120;53.504;49.426;2022-12-18T16:45:16;1.81;104.73
67192;HTU21D;54120;53.504;49.426;2022-12-18T16:47:43;1.81;104.85
67192;HTU21D;54120;53.504;49.426;2022-12-18T16:50:10;1.84;104.96